Time;durP1;ratioP1;P1;durP2;ratioP2;P2;SDS_P1;SDS_P2;PMS_P1;PMS_P2;Temp;Humidity;BMP_temperature;BMP_pressure;BME280_temperature;BME280_humidity;BME280_pressure;Samples;Min_cycle;Max_cycle;Signal;HPM_P1;HPM_P2
2022/09/28 00:01:23;;;;;;;0.60;0.60;;;19.60;62.10;;;;;;5025847;28;43442;-58
2022/09/28 00:03:53;;;;;;;0.70;0.70;;;19.60;62.10;;;;;;5024977;28;43408;-59
2022/09/28 00:06:25;;;;;;;0.60;0.60;;;19.50;62.10;;;;;;5024745;28;44998;-59
2022/09/28 00:08:53;;;;;;;0.98;0.63;;;19.60;62.10;;;;;;5024294;28;43499;-59
2022/09/28 00:11:22;;;;;;;0.63;0.63;;;19.50;62.20;;;;;;5025306;28;43478;-59
2022/09/28 00:13:51;;;;;;;0.77;0.65;;;19.50;62.10;;;;;;5025072;28;43485;-58
2022/09/28 00:16:21;;;;;;;0.70;0.60;;;19.50;62.10;;;;;;5022934;28;44592;-58
2022/09/28 00:18:50;;;;;;;0.95;0.70;;;19.50;62.10;;;;;;5023276;28;44456;-58
2022/09/28 00:21:23;;;;;;;0.38;0.38;;;19.50;62.20;;;;;;5023694;28;43424;-59
2022/09/28 00:26:44;;;;;;;0.60;0.60;;;19.40;62.10;;;;;;5023782;28;43771;-59
2022/09/28 00:29:31;;;;;;;0.98;0.60;;;19.40;62.10;;;;;;5025092;28;43434;-59
2022/09/28 00:32:06;;;;;;;1.08;0.82;;;19.40;62.20;;;;;;5025177;28;43992;-58
2022/09/28 00:34:40;;;;;;;0.57;0.57;;;19.40;62.20;;;;;;5023890;28;43583;-61
2022/09/28 00:37:08;;;;;;;0.70;0.70;;;19.40;62.20;;;;;;5008738;28;46079;-59
2022/09/28 00:39:37;;;;;;;0.70;0.70;;;19.40;62.20;;;;;;5023853;28;43455;-58
2022/09/28 00:42:13;;;;;;;0.50;0.50;;;19.40;62.20;;;;;;5024689;28;43437;-59
2022/09/28 00:44:49;;;;;;;0.52;0.52;;;19.40;62.20;;;;;;5024428;28;43565;-58
2022/09/28 00:47:26;;;;;;;0.57;0.57;;;19.40;62.20;;;;;;5021669;28;44036;-59
2022/09/28 00:50:05;;;;;;;0.55;0.55;;;19.40;62.30;;;;;;5024963;28;43463;-59
2022/09/28 00:52:39;;;;;;;0.70;0.60;;;19.40;62.30;;;;;;5024540;28;43407;-59
2022/09/28 00:55:12;;;;;;;0.70;0.63;;;19.30;62.30;;;;;;5024356;28;43546;-59
2022/09/28 00:57:43;;;;;;;0.75;0.75;;;19.30;62.20;;;;;;5024128;28;44416;-58
2022/09/28 01:00:11;;;;;;;0.55;0.55;;;19.30;62.20;;;;;;5056797;28;44776;-59
2022/09/28 01:02:39;;;;;;;0.73;0.73;;;19.30;62.20;;;;;;5022263;28;43390;-59
2022/09/28 01:05:09;;;;;;;0.65;0.65;;;19.30;62.90;;;;;;5023306;28;43600;-58
2022/09/28 01:07:37;;;;;;;0.65;0.65;;;19.30;62.20;;;;;;5022848;28;44289;-58
2022/09/28 01:10:05;;;;;;;1.00;0.50;;;19.20;62.20;;;;;;5022761;28;43388;-58
2022/09/28 01:12:32;;;;;;;0.52;0.52;;;19.20;62.20;;;;;;5027388;28;43413;-58
2022/09/28 01:15:01;;;;;;;0.60;0.60;;;19.20;62.20;;;;;;5022256;28;43461;-59
2022/09/28 01:18:04;;;;;;;0.60;0.60;;;19.20;62.20;;;;;;5023434;28;44990;-59
2022/09/28 01:20:38;;;;;;;0.80;0.80;;;19.20;62.20;;;;;;5009329;28;43494;-59
2022/09/28 01:23:20;;;;;;;0.75;0.75;;;19.20;62.30;;;;;;5023970;28;43420;-59
2022/09/28 01:25:56;;;;;;;1.13;0.70;;;19.20;62.30;;;;;;5019516;28;43616;-59
2022/09/28 01:28:27;;;;;;;0.60;0.60;;;19.20;62.30;;;;;;5024062;28;43762;-59
2022/09/28 01:30:59;;;;;;;0.82;0.80;;;19.20;62.30;;;;;;5022635;28;43967;-58
2022/09/28 01:33:27;;;;;;;;;;;19.20;62.30;;;;;;5022578;28;43388;-58
2022/09/28 01:36:05;;;;;;;0.95;0.90;;;19.10;62.30;;;;;;5023335;28;43561;-59
2022/09/28 01:38:55;;;;;;;0.80;0.80;;;19.10;62.30;;;;;;5020922;28;44559;-59
2022/09/28 01:41:27;;;;;;;0.80;0.80;;;19.10;62.30;;;;;;5022630;28;44618;-59
2022/09/28 01:44:01;;;;;;;0.57;0.57;;;19.10;62.30;;;;;;5038980;28;43425;-59
2022/09/28 01:46:36;;;;;;;0.73;0.73;;;19.10;62.30;;;;;;5021895;28;43578;-59
2022/09/28 01:49:13;;;;;;;0.75;0.60;;;19.10;62.30;;;;;;5022906;28;44636;-58
2022/09/28 01:51:58;;;;;;;0.77;0.70;;;19.10;62.30;;;;;;5055791;28;43356;-59
2022/09/28 01:54:37;;;;;;;0.75;0.75;;;19.10;62.30;;;;;;5022147;28;43438;-59
2022/09/28 01:57:08;;;;;;;0.90;0.70;;;19.10;62.30;;;;;;5027927;28;43411;-58
2022/09/28 01:59:41;;;;;;;1.33;0.77;;;19.00;62.30;;;;;;5038722;28;44638;-58
2022/09/28 02:02:10;;;;;;;1.15;0.80;;;19.00;62.30;;;;;;5022279;28;44018;-59
2022/09/28 02:05:23;;;;;;;0.90;0.90;;;19.00;62.30;;;;;;5022697;28;43497;-59
2022/09/28 02:08:04;;;;;;;0.73;0.73;;;19.00;62.30;;;;;;5021058;28;44097;-59
2022/09/28 02:10:42;;;;;;;1.27;0.73;;;19.00;62.40;;;;;;5021411;28;43887;-59
2022/09/28 02:13:15;;;;;;;0.65;0.65;;;19.00;62.30;;;;;;5033804;28;43399;-59
2022/09/28 02:16:15;;;;;;;0.73;0.73;;;19.00;62.40;;;;;;5055096;28;43455;-58
2022/09/28 02:18:44;;;;;;;0.63;0.63;;;19.00;63.00;;;;;;5018216;28;43585;-59
2022/09/28 02:21:28;;;;;;;0.63;0.63;;;19.00;62.40;;;;;;5021939;28;44828;-59
2022/09/28 02:24:01;;;;;;;1.02;0.80;;;19.00;62.40;;;;;;5023353;28;44018;-58
2022/09/28 02:26:34;;;;;;;0.70;0.70;;;19.00;62.40;;;;;;5003976;28;43416;-59
2022/09/28 02:29:02;;;;;;;0.73;0.73;;;19.00;62.40;;;;;;5023029;28;43610;-59
2022/09/28 02:31:30;;;;;;;0.70;0.70;;;18.90;62.40;;;;;;5054743;28;44030;-59
2022/09/28 02:33:58;;;;;;;0.80;0.80;;;18.90;62.40;;;;;;5021452;28;43464;-59
2022/09/28 02:36:27;;;;;;;0.65;0.65;;;18.90;62.40;;;;;;5022868;28;43490;-58
2022/09/28 02:38:57;;;;;;;0.88;0.85;;;18.90;62.40;;;;;;5022043;28;43525;-58
2022/09/28 02:41:33;;;;;;;0.70;0.65;;;18.90;62.40;;;;;;5019843;28;44386;-58
2022/09/28 02:44:09;;;;;;;0.88;0.73;;;18.90;62.40;;;;;;5023032;28;43955;-58
2022/09/28 02:46:56;;;;;;;0.80;0.80;;;18.90;62.40;;;;;;5020542;28;43489;-59
2022/09/28 02:49:33;;;;;;;0.80;0.80;;;18.90;62.40;;;;;;5019715;28;43649;-59
2022/09/28 02:52:49;;;;;;;0.77;0.77;;;18.90;62.40;;;;;;5021178;28;44439;-59
2022/09/28 02:55:44;;;;;;;0.50;0.50;;;18.80;62.40;;;;;;5021890;28;43467;-59
2022/09/28 02:58:41;;;;;;;0.82;0.82;;;18.80;62.40;;;;;;5021193;28;43419;-58
2022/09/28 03:01:20;;;;;;;0.60;0.60;;;18.80;62.40;;;;;;5054712;28;44004;-58
2022/09/28 03:03:55;;;;;;;0.60;0.60;;;18.80;62.40;;;;;;5022023;28;43865;-58
2022/09/28 03:06:40;;;;;;;0.55;0.55;;;18.80;62.40;;;;;;5022138;28;43433;-59
2022/09/28 03:09:24;;;;;;;0.65;0.63;;;18.80;62.40;;;;;;5022277;28;43467;-58
2022/09/28 03:12:05;;;;;;;0.50;0.50;;;18.80;62.40;;;;;;5013919;28;43475;-59
2022/09/28 03:14:32;;;;;;;0.60;0.60;;;18.80;62.40;;;;;;5033840;28;43985;-59
2022/09/28 03:17:00;;;;;;;0.57;0.57;;;18.80;62.40;;;;;;5020709;28;43959;-59
2022/09/28 03:19:32;;;;;;;0.40;0.40;;;18.80;62.40;;;;;;5022029;28;43402;-59
2022/09/28 03:22:00;;;;;;;0.60;0.60;;;18.80;63.00;;;;;;5022451;28;43543;-59
2022/09/28 03:24:28;;;;;;;0.63;0.63;;;18.80;62.40;;;;;;5020279;28;43817;-59
2022/09/28 03:26:55;;;;;;;0.50;0.50;;;18.70;62.40;;;;;;5022150;28;43400;-59
2022/09/28 03:29:22;;;;;;;0.50;0.50;;;18.70;62.30;;;;;;5025389;28;43418;-59
2022/09/28 03:31:56;;;;;;;0.60;0.60;;;18.70;62.30;;;;;;5024985;28;43531;-59
2022/09/28 03:34:24;;;;;;;0.50;0.50;;;18.70;62.40;;;;;;5023928;28;44039;-58
2022/09/28 03:36:51;;;;;;;0.40;0.40;;;18.70;62.40;;;;;;5023781;28;43411;-59
2022/09/28 03:39:19;;;;;;;0.50;0.50;;;18.70;62.40;;;;;;5025611;28;43403;-59
2022/09/28 03:41:46;;;;;;;0.63;0.50;;;18.70;62.30;;;;;;5024388;28;43611;-59
2022/09/28 03:44:14;;;;;;;0.47;0.47;;;18.70;62.30;;;;;;5024165;28;45237;-59
2022/09/28 03:46:41;;;;;;;0.50;0.50;;;18.70;62.40;;;;;;5023272;28;43855;-59
2022/09/28 03:49:09;;;;;;;0.40;0.40;;;18.70;62.40;;;;;;5023874;28;43381;-59
2022/09/28 03:51:37;;;;;;;0.55;0.40;;;18.70;62.30;;;;;;5023895;28;43593;-59
2022/09/28 03:54:04;;;;;;;0.40;0.40;;;18.70;62.40;;;;;;5007160;28;44195;-59
2022/09/28 03:56:32;;;;;;;0.40;0.40;;;18.70;62.40;;;;;;5039856;28;44091;-59
2022/09/28 03:59:01;;;;;;;0.52;0.50;;;18.70;62.40;;;;;;5025782;28;43401;-59
2022/09/28 04:01:28;;;;;;;0.47;0.30;;;18.60;62.30;;;;;;5024118;28;43528;-59
2022/09/28 04:03:57;;;;;;;0.52;0.40;;;18.60;62.30;;;;;;5023098;28;44731;-59
2022/09/28 04:06:26;;;;;;;0.35;0.35;;;18.60;62.30;;;;;;5023316;28;43506;-58
2022/09/28 04:08:53;;;;;;;0.35;0.35;;;18.60;62.30;;;;;;5023532;28;43469;-59
2022/09/28 04:11:21;;;;;;;0.50;0.50;;;18.60;62.30;;;;;;5022998;28;43501;-58
2022/09/28 04:13:49;;;;;;;0.50;0.50;;;18.60;62.30;;;;;;5057244;28;43803;-59
2022/09/28 04:16:17;;;;;;;0.50;0.50;;;18.60;62.30;;;;;;5023169;28;43423;-58
2022/09/28 04:18:54;;;;;;;0.47;0.40;;;18.60;62.40;;;;;;5017630;28;43416;-59
2022/09/28 04:21:40;;;;;;;0.50;0.50;;;18.50;62.20;;;;;;5023882;28;43558;-59
2022/09/28 04:24:11;;;;;;;;;;;18.60;62.50;;;;;;5023837;28;44059;-59
2022/09/28 04:26:40;;;;;;;0.40;0.40;;;18.60;62.40;;;;;;5021785;28;43475;-59
2022/09/28 04:29:15;;;;;;;0.38;0.38;;;18.50;62.40;;;;;;5041137;28;43418;-59
2022/09/28 04:31:54;;;;;;;1.00;0.50;;;18.50;62.40;;;;;;5023438;28;43442;-59
2022/09/28 04:34:50;;;;;;;0.40;0.40;;;18.50;62.30;;;;;;5023581;28;44431;-59
2022/09/28 04:37:17;;;;;;;0.40;0.40;;;18.50;62.30;;;;;;5022896;28;43972;-58
2022/09/28 04:39:44;;;;;;;0.52;0.52;;;18.50;62.30;;;;;;5023169;28;43438;-58
2022/09/28 04:42:17;;;;;;;0.40;0.40;;;18.50;62.30;;;;;;5006289;28;43499;-59
2022/09/28 04:44:45;;;;;;;0.30;0.30;;;18.50;62.40;;;;;;5023166;28;43817;-59
2022/09/28 04:47:12;;;;;;;0.40;0.40;;;18.50;62.40;;;;;;5022261;28;43474;-59
2022/09/28 04:49:42;;;;;;;0.40;0.40;;;18.50;62.40;;;;;;5024993;28;43436;-59
2022/09/28 04:52:15;;;;;;;0.40;0.40;;;18.40;62.30;;;;;;5023499;28;43411;-59
2022/09/28 04:54:47;;;;;;;0.22;0.22;;;18.40;62.40;;;;;;5006855;28;43895;-59
2022/09/28 04:57:15;;;;;;;0.40;0.40;;;18.40;62.40;;;;;;5014870;28;43404;-59
2022/09/28 04:59:43;;;;;;;0.40;0.40;;;18.40;62.40;;;;;;5024704;28;43453;-58
2022/09/28 05:02:13;;;;;;;0.30;0.30;;;18.40;62.40;;;;;;5018868;28;43621;-59
2022/09/28 05:05:00;;;;;;;0.43;0.43;;;18.40;62.40;;;;;;5023806;28;43761;-58
2022/09/28 05:07:46;;;;;;;0.30;0.30;;;18.40;62.40;;;;;;5021920;28;43487;-59
2022/09/28 05:10:14;;;;;;;0.30;0.30;;;18.40;62.30;;;;;;5023115;28;43483;-59
2022/09/28 05:12:41;;;;;;;0.32;0.32;;;18.40;62.30;;;;;;5022834;28;43434;-59
2022/09/28 05:15:10;;;;;;;0.30;0.30;;;18.40;62.20;;;;;;5021384;28;44713;-58
2022/09/28 05:17:38;;;;;;;0.38;0.38;;;18.40;62.30;;;;;;5022395;28;43608;-59
2022/09/28 05:20:28;;;;;;;0.57;0.57;;;18.40;62.30;;;;;;5018174;28;43419;-59
2022/09/28 05:22:56;;;;;;;0.35;0.35;;;18.40;62.20;;;;;;5022772;28;43512;-59
2022/09/28 05:25:24;;;;;;;0.50;0.50;;;18.40;62.30;;;;;;5022223;28;44984;-59
2022/09/28 05:28:02;;;;;;;0.20;0.20;;;18.40;62.30;;;;;;5021947;28;44059;-59
2022/09/28 05:30:52;;;;;;;0.40;0.40;;;18.40;62.20;;;;;;5022269;28;44062;-59
2022/09/28 05:33:30;;;;;;;0.30;0.30;;;18.40;62.40;;;;;;5018913;28;43502;-58
2022/09/28 05:36:09;;;;;;;0.43;0.43;;;18.40;62.40;;;;;;5016311;28;43792;-59
2022/09/28 05:38:37;;;;;;;0.50;0.50;;;18.30;62.30;;;;;;5018741;28;43566;-59
2022/09/28 05:41:05;;;;;;;0.40;0.40;;;18.30;62.30;;;;;;5032303;28;43438;-59
2022/09/28 05:43:33;;;;;;;0.22;0.22;;;18.30;62.40;;;;;;5022537;28;43685;-58
2022/09/28 05:46:04;;;;;;;0.40;0.40;;;18.30;62.30;;;;;;5021454;28;45017;-58
2022/09/28 05:48:34;;;;;;;0.38;0.38;;;18.30;62.30;;;;;;5021503;28;43542;-59
2022/09/28 05:51:01;;;;;;;0.32;0.32;;;18.30;62.30;;;;;;5038610;28;43376;-59
2022/09/28 05:53:29;;;;;;;0.30;0.30;;;18.20;62.30;;;;;;5052853;28;43476;-59
2022/09/28 05:55:58;;;;;;;0.30;0.30;;;18.30;62.30;;;;;;5005372;28;44173;-59
2022/09/28 05:58:27;;;;;;;0.40;0.40;;;18.30;62.30;;;;;;5021617;28;43424;-59
2022/09/28 06:00:57;;;;;;;0.40;0.40;;;18.30;62.30;;;;;;5022195;28;43452;-59
2022/09/28 06:03:25;;;;;;;0.40;0.40;;;18.30;62.30;;;;;;5021087;28;43645;-59
2022/09/28 06:05:53;;;;;;;0.50;0.50;;;18.30;62.20;;;;;;5022056;28;43748;-58
2022/09/28 06:08:21;;;;;;;0.50;0.50;;;18.30;62.20;;;;;;5038410;28;43450;-58
2022/09/28 06:11:01;;;;;;;0.40;0.40;;;18.30;62.20;;;;;;5022487;28;43459;-59
2022/09/28 06:13:28;;;;;;;0.30;0.30;;;18.30;62.30;;;;;;5022975;28;43545;-59
2022/09/28 06:15:56;;;;;;;0.40;0.40;;;18.30;62.30;;;;;;5021904;28;43995;-59
2022/09/28 06:18:25;;;;;;;0.40;0.40;;;18.30;62.20;;;;;;5020796;28;44004;-59
2022/09/28 06:21:12;;;;;;;0.40;0.40;;;18.20;62.30;;;;;;5023202;28;43422;-58
2022/09/28 06:23:43;;;;;;;0.40;0.40;;;18.20;62.30;;;;;;5021975;28;43420;-59
2022/09/28 06:26:17;;;;;;;0.22;0.22;;;18.30;62.40;;;;;;5004543;28;44955;-59
2022/09/28 06:28:45;;;;;;;0.40;0.40;;;18.20;62.30;;;;;;5051635;28;43454;-59
2022/09/28 06:31:14;;;;;;;0.30;0.30;;;18.20;62.30;;;;;;5021050;28;43466;-59
2022/09/28 06:33:48;;;;;;;0.50;0.50;;;18.20;62.40;;;;;;5021954;28;44194;-59
2022/09/28 06:36:18;;;;;;;0.30;0.30;;;18.20;62.30;;;;;;5021936;28;44203;-59
2022/09/28 06:38:46;;;;;;;0.30;0.30;;;18.20;62.40;;;;;;5020926;28;43998;-59
2022/09/28 06:41:14;;;;;;;0.40;0.40;;;18.20;62.50;;;;;;5021405;28;43475;-59
2022/09/28 06:43:45;;;;;;;0.30;0.30;;;18.20;62.50;;;;;;5035026;28;43498;-59
2022/09/28 06:46:13;;;;;;;0.50;0.40;;;18.20;62.50;;;;;;5019083;28;44110;-59
2022/09/28 06:48:49;;;;;;;0.63;0.30;;;18.20;62.50;;;;;;5021409;28;44114;-59
2022/09/28 06:51:52;;;;;;;0.25;0.25;;;18.10;62.40;;;;;;4993924;28;43511;-59
2022/09/28 06:54:35;;;;;;;0.35;0.35;;;18.10;62.50;;;;;;5016427;28;43519;-59
2022/09/28 06:57:20;;;;;;;0.52;0.52;;;18.20;62.70;;;;;;5003552;28;44128;-59
2022/09/28 06:59:47;;;;;;;1.90;1.80;;;18.10;62.60;;;;;;5020809;28;43351;-59
2022/09/28 07:02:14;;;;;;;1.42;1.27;;;18.10;62.60;;;;;;5020415;28;43524;-59
2022/09/28 07:05:12;;;;;;;0.82;0.82;;;18.10;62.50;;;;;;5013821;28;43510;-59
2022/09/28 07:07:57;;;;;;;1.05;1.05;;;18.10;62.50;;;;;;5020293;28;43924;-59
2022/09/28 07:10:48;;;;;;;1.05;1.05;;;18.10;62.50;;;;;;5055040;28;43425;-59
2022/09/28 07:13:41;;;;;;;2.00;1.90;;;18.10;62.50;;;;;;5020701;28;43552;-60
2022/09/28 07:16:19;;;;;;;2.00;1.90;;;18.10;62.60;;;;;;5004489;28;43588;-59
2022/09/28 07:18:52;;;;;;;3.22;2.00;;;18.10;62.60;;;;;;5004815;28;45516;-59
2022/09/28 07:21:20;;;;;;;2.38;2.17;;;18.10;62.70;;;;;;5017296;28;43660;-59
2022/09/28 07:23:58;;;;;;;1.92;1.70;;;18.20;63.10;;;;;;5020751;28;43412;-59
2022/09/28 07:26:55;;;;;;;2.13;1.92;;;18.30;62.70;;;;;;5019163;28;43548;-59
2022/09/28 07:29:46;;;;;;;2.83;2.07;;;18.40;62.50;;;;;;5015792;28;43744;-59
2022/09/28 07:32:22;;;;;;;3.42;2.20;;;18.50;62.40;;;;;;5004061;28;43822;-59
2022/09/28 07:34:59;;;;;;;3.95;2.03;;;18.60;62.20;;;;;;5017403;28;43427;-61
2022/09/28 07:37:36;;;;;;;1.73;1.60;;;18.70;62.70;;;;;;5020398;28;43524;-62
2022/09/28 07:42:52;;;;;;;1.70;1.60;;;19.00;62.60;;;;;;5016465;28;43979;-62
2022/09/28 07:45:22;;;;;;;3.97;1.67;;;19.10;62.10;;;;;;5020283;28;43398;-61
2022/09/28 07:47:56;;;;;;;1.63;1.40;;;19.30;62.10;;;;;;5011428;28;43483;-61
2022/09/28 07:50:26;;;;;;;1.60;1.50;;;19.40;61.80;;;;;;5021553;28;43876;-61
2022/09/28 07:53:18;;;;;;;1.60;1.50;;;19.50;61.60;;;;;;5015991;28;43474;-62
2022/09/28 07:56:08;;;;;;;1.52;1.42;;;19.70;61.60;;;;;;5003580;28;43415;-62
2022/09/28 07:59:02;;;;;;;1.40;1.30;;;19.80;61.80;;;;;;5018416;28;43754;-61
2022/09/28 08:01:38;;;;;;;2.17;1.42;;;20.00;61.30;;;;;;5020113;28;45732;-60
2022/09/28 08:04:08;;;;;;;1.50;1.40;;;20.20;61.00;;;;;;5019523;28;43507;-61
2022/09/28 08:06:36;;;;;;;2.33;1.30;;;20.40;61.00;;;;;;5019891;28;44060;-61
2022/09/28 08:09:05;;;;;;;3.35;1.40;;;20.60;60.60;;;;;;5020053;28;43412;-62
2022/09/28 08:11:58;;;;;;;1.63;1.50;;;20.70;60.20;;;;;;5003529;28;44022;-61
2022/09/28 08:14:41;;;;;;;3.53;1.33;;;21.00;60.00;;;;;;5023688;28;43400;-59
2022/09/28 08:17:28;;;;;;;2.25;1.40;;;21.10;59.40;;;;;;5017643;28;43459;-59
2022/09/28 08:22:44;;;;;;;1.67;1.50;;;21.40;58.80;;;;;;5023716;28;45018;-59
2022/09/28 08:25:11;;;;;;;1.20;1.20;;;21.60;58.60;;;;;;5022680;28;43562;-59
2022/09/28 08:27:38;;;;;;;1.30;1.20;;;21.70;58.30;;;;;;5023536;28;43569;-59
2022/09/28 08:30:07;;;;;;;2.20;1.35;;;21.70;58.20;;;;;;5023917;28;43463;-59
2022/09/28 08:32:53;;;;;;;1.23;1.20;;;21.70;58.00;;;;;;5024570;28;43817;-59
2022/09/28 08:35:40;;;;;;;1.00;1.00;;;21.70;57.90;;;;;;5024669;28;43813;-59
2022/09/28 08:38:13;;;;;;;1.50;1.40;;;21.70;57.90;;;;;;5023302;28;43399;-59
2022/09/28 08:41:19;;;;;;;1.15;1.15;;;21.70;57.80;;;;;;5012902;28;43473;-59
2022/09/28 08:44:12;;;;;;;1.20;1.10;;;21.70;57.90;;;;;;5016240;28;43805;-59
2022/09/28 08:47:03;;;;;;;0.82;0.82;;;21.60;57.90;;;;;;5021495;28;43453;-59
2022/09/28 08:49:53;;;;;;;2.03;1.25;;;21.60;58.10;;;;;;5049138;28;43502;-59
2022/09/28 08:52:50;;;;;;;1.33;1.08;;;21.50;58.20;;;;;;5014242;28;43562;-58
2022/09/28 08:55:39;;;;;;;1.08;0.90;;;21.50;58.30;;;;;;5014843;28;45007;-59
2022/09/28 08:58:14;;;;;;;1.00;1.00;;;21.40;58.40;;;;;;5021815;28;43520;-59
2022/09/28 09:00:49;;;;;;;1.70;1.00;;;21.40;58.60;;;;;;5056015;28;43378;-59
2022/09/28 09:03:31;;;;;;;2.40;1.10;;;21.40;58.90;;;;;;5021774;28;43503;-61
2022/09/28 09:06:28;;;;;;;8.60;1.42;;;21.30;59.40;;;;;;5022899;28;44838;-58
2022/09/28 09:09:17;;;;;;;3.17;1.13;;;21.30;59.20;;;;;;5021308;28;43956;-58
2022/09/28 09:12:03;;;;;;;4.35;1.50;;;21.20;59.30;;;;;;5022979;28;43432;-58
2022/09/28 09:14:40;;;;;;;3.88;1.38;;;21.20;59.30;;;;;;5022334;28;43573;-58
2022/09/28 09:17:17;;;;;;;3.72;1.80;;;21.10;59.30;;;;;;5021626;28;43804;-58
2022/09/28 09:20:06;;;;;;;3.58;1.63;;;21.10;59.40;;;;;;5022544;28;43540;-58
2022/09/28 09:22:59;;;;;;;3.72;1.40;;;21.10;59.50;;;;;;5022871;28;43565;-58
2022/09/28 09:25:42;;;;;;;3.92;1.70;;;21.00;59.50;;;;;;5051716;28;43418;-59
2022/09/28 09:28:17;;;;;;;2.50;1.50;;;20.90;59.60;;;;;;5020853;28;43959;-58
2022/09/28 09:31:13;;;;;;;2.30;1.70;;;20.90;59.70;;;;;;5022128;28;43514;-59
2022/09/28 09:34:09;;;;;;;2.95;1.80;;;20.90;59.70;;;;;;5021354;28;43494;-58
2022/09/28 09:37:19;;;;;;;4.65;1.83;;;20.90;59.90;;;;;;5014385;28;43623;-58
2022/09/28 09:40:16;;;;;;;3.78;1.63;;;20.80;60.00;;;;;;5022841;28;45119;-58
2022/09/28 09:43:06;;;;;;;4.22;1.98;;;20.80;60.30;;;;;;5021347;28;43457;-58
2022/09/28 09:46:15;;;;;;;3.17;1.80;;;20.70;60.30;;;;;;5011962;28;43585;-58
2022/09/28 09:49:19;;;;;;;6.45;3.10;;;20.70;60.40;;;;;;5030561;28;43541;-58
2022/09/28 09:51:56;;;;;;;10.10;3.88;;;20.60;60.60;;;;;;5022159;28;43879;-58
2022/09/28 09:55:12;;;;;;;9.90;3.65;;;20.60;60.70;;;;;;5003806;28;44755;-58
2022/09/28 09:58:01;;;;;;;7.25;3.42;;;20.60;60.80;;;;;;5002474;28;43550;-58
2022/09/28 10:00:48;;;;;;;9.43;3.60;;;20.60;60.80;;;;;;4991044;28;43396;-58
2022/09/28 10:03:28;;;;;;;8.50;3.53;;;20.50;60.80;;;;;;5018470;28;43808;-58
2022/09/28 10:06:13;;;;;;;8.60;3.88;;;20.50;60.80;;;;;;5021335;28;43579;-58
2022/09/28 10:08:47;;;;;;;8.73;4.72;;;20.50;60.90;;;;;;5002924;28;43993;-58
2022/09/28 10:11:27;;;;;;;11.32;5.18;;;20.50;61.10;;;;;;5021349;28;43435;-59
2022/09/28 10:13:56;;;;;;;10.40;4.75;;;20.40;61.10;;;;;;5022196;28;43947;-58
2022/09/28 10:16:41;;;;;;;11.10;4.97;;;20.50;61.30;;;;;;5019872;28;43542;-58
2022/09/28 10:19:18;;;;;;;9.85;4.63;;;20.50;61.50;;;;;;5021692;28;43581;-58
2022/09/28 10:22:05;;;;;;;10.77;4.60;;;20.50;61.10;;;;;;5017360;28;43514;-59
2022/09/28 10:24:35;;;;;;;9.75;5.20;;;20.40;61.00;;;;;;5020086;28;44048;-58
2022/09/28 10:27:07;;;;;;;9.63;5.50;;;20.50;61.20;;;;;;5022917;28;43986;-58
2022/09/28 10:29:43;;;;;;;9.85;5.00;;;20.50;61.20;;;;;;5018406;28;43399;-58
2022/09/28 10:32:25;;;;;;;10.38;4.72;;;20.50;61.20;;;;;;5020025;28;43582;-59
2022/09/28 10:35:13;;;;;;;10.77;5.45;;;20.50;61.20;;;;;;5037493;28;43883;-58
2022/09/28 10:38:15;;;;;;;10.55;4.75;;;20.50;61.20;;;;;;5031296;28;44066;-58
2022/09/28 10:41:10;;;;;;;11.50;5.78;;;20.50;61.20;;;;;;5018633;28;43476;-58
2022/09/28 10:44:05;;;;;;;12.98;5.63;;;20.50;61.20;;;;;;5018379;28;43544;-58
2022/09/28 10:47:04;;;;;;;11.35;5.38;;;20.50;61.40;;;;;;5018328;28;43766;-59
2022/09/28 10:49:41;;;;;;;12.43;5.65;;;20.40;61.40;;;;;;5016570;28;43434;-58
2022/09/28 10:52:35;;;;;;;10.30;5.15;;;20.40;61.60;;;;;;5002074;28;43333;-58
2022/09/28 10:55:26;;;;;;;10.60;5.53;;;20.40;61.60;;;;;;5017632;28;43523;-58
2022/09/28 10:57:53;;;;;;;11.73;5.97;;;20.40;61.60;;;;;;5020382;28;44993;-58
2022/09/28 11:00:30;;;;;;;10.65;5.55;;;20.40;61.60;;;;;;5019740;28;44457;-58
2022/09/28 11:03:21;;;;;;;10.98;5.72;;;20.40;61.50;;;;;;5020564;28;43464;-58
2022/09/28 11:06:02;;;;;;;;;;;20.30;61.60;;;;;;5022517;28;43493;-59
2022/09/28 11:08:44;;;;;;;10.70;5.03;;;20.30;61.60;;;;;;5032202;28;44042;-58
2022/09/28 11:11:20;;;;;;;11.27;5.30;;;20.30;61.70;;;;;;5004421;28;43391;-58
2022/09/28 11:14:00;;;;;;;10.15;5.70;;;20.30;61.70;;;;;;5018918;28;43442;-59
2022/09/28 11:16:33;;;;;;;9.68;5.28;;;20.30;61.80;;;;;;5009654;28;43558;-59
2022/09/28 11:19:24;;;;;;;8.38;4.60;;;20.30;62.00;;;;;;5004633;28;44942;-58
2022/09/28 11:21:51;;;;;;;10.43;5.30;;;20.30;62.10;;;;;;5018619;28;43439;-58
2022/09/28 11:24:23;;;;;;;;;;;20.30;62.10;;;;;;5021567;28;43439;-58
2022/09/28 11:26:58;;;;;;;8.63;4.63;;;20.30;62.00;;;;;;5020272;28;43412;-58
2022/09/28 11:29:40;;;;;;;8.43;4.88;;;20.30;62.10;;;;;;5018479;28;44386;-58
2022/09/28 11:32:21;;;;;;;8.55;4.70;;;20.30;62.00;;;;;;5020103;28;45252;-58
2022/09/28 11:35:19;;;;;;;8.73;4.60;;;20.30;62.10;;;;;;5020974;28;43456;-58
2022/09/28 11:38:12;;;;;;;8.63;5.00;;;20.30;62.00;;;;;;5020293;28;43542;-58
2022/09/28 11:41:24;;;;;;;8.45;4.75;;;20.40;62.00;;;;;;5013485;28;44190;-58
2022/09/28 11:44:04;;;;;;;8.10;4.75;;;20.40;62.10;;;;;;5019700;28;44085;-58
2022/09/28 11:46:48;;;;;;;9.63;4.32;;;20.40;61.90;;;;;;5018868;28;43473;-59
2022/09/28 11:49:19;;;;;;;9.50;4.78;;;20.40;61.90;;;;;;5051005;28;43529;-59
2022/09/28 11:51:48;;;;;;;10.43;4.60;;;20.40;61.90;;;;;;5022863;28;44979;-58
2022/09/28 11:54:58;;;;;;;7.97;4.32;;;20.40;61.80;;;;;;5023166;28;43781;-59
2022/09/28 11:57:33;;;;;;;9.45;4.30;;;20.40;62.00;;;;;;5002305;28;43593;-58
2022/09/28 12:00:13;;;;;;;6.40;4.10;;;20.50;62.00;;;;;;5024239;28;43416;-59
2022/09/28 12:02:54;;;;;;;6.38;4.05;;;20.50;61.90;;;;;;5021803;28;43653;-58
2022/09/28 12:05:39;;;;;;;8.82;4.35;;;20.50;61.90;;;;;;5022233;28;43474;-58
2022/09/28 12:08:24;;;;;;;7.95;4.03;;;20.40;61.80;;;;;;5024342;28;43478;-58
2022/09/28 12:11:35;;;;;;;7.25;3.95;;;20.40;61.80;;;;;;5021801;28;43672;-58
2022/09/28 12:14:29;;;;;;;6.53;3.80;;;20.40;61.80;;;;;;5022506;28;43864;-58
2022/09/28 12:17:12;;;;;;;7.05;4.00;;;20.40;61.90;;;;;;5023516;28;43479;-58
2022/09/28 12:19:55;;;;;;;8.02;3.75;;;20.40;62.10;;;;;;5023480;28;43494;-58
2022/09/28 12:22:33;;;;;;;5.43;3.60;;;20.40;62.10;;;;;;5023306;28;43485;-58
2022/09/28 12:25:04;;;;;;;5.82;3.97;;;20.40;62.10;;;;;;5023521;28;44217;-58
2022/09/28 12:27:46;;;;;;;6.32;3.60;;;20.40;61.90;;;;;;5023279;28;44025;-58
2022/09/28 12:30:24;;;;;;;6.70;3.72;;;20.40;61.80;;;;;;5023127;28;43458;-58
2022/09/28 12:33:00;;;;;;;5.22;3.53;;;20.50;61.90;;;;;;5023787;28;43533;-58
2022/09/28 12:35:27;;;;;;;5.90;2.90;;;20.50;61.90;;;;;;5019935;28;44066;-59
2022/09/28 12:38:19;;;;;;;5.82;3.63;;;20.50;61.90;;;;;;5020815;28;43509;-58
2022/09/28 12:41:00;;;;;;;7.47;3.30;;;20.50;61.90;;;;;;5023869;28;43427;-58
2022/09/28 12:43:39;;;;;;;5.75;3.45;;;20.50;61.90;;;;;;5021730;28;43519;-59
2022/09/28 12:46:41;;;;;;;4.75;3.40;;;20.50;61.90;;;;;;5023850;28;44679;-58
2022/09/28 12:49:08;;;;;;;5.63;3.05;;;20.50;61.90;;;;;;5015540;28;43417;-58
2022/09/28 12:52:00;;;;;;;5.38;3.35;;;20.50;61.90;;;;;;5024116;28;43504;-58
2022/09/28 12:54:33;;;;;;;5.47;3.40;;;20.50;61.90;;;;;;5024234;28;43576;-59
2022/09/28 12:57:03;;;;;;;4.35;3.30;;;20.50;61.90;;;;;;5015759;28;43997;-58
2022/09/28 12:59:42;;;;;;;5.90;3.13;;;20.50;61.90;;;;;;5022813;28;44174;-58
2022/09/28 13:02:15;;;;;;;4.82;3.08;;;20.60;61.90;;;;;;5022595;28;43406;-58
2022/09/28 13:05:02;;;;;;;4.25;2.67;;;20.60;62.00;;;;;;5022537;28;43459;-59
2022/09/28 13:08:07;;;;;;;4.90;3.13;;;20.60;61.90;;;;;;5023007;28;44968;-59
2022/09/28 13:10:45;;;;;;;4.05;2.80;;;20.60;62.00;;;;;;5023311;28;43450;-58
2022/09/28 13:13:46;;;;;;;5.00;2.67;;;20.60;61.90;;;;;;5023446;28;43367;-58
2022/09/28 13:16:20;;;;;;;3.60;2.50;;;20.60;61.80;;;;;;5021782;28;43445;-58
2022/09/28 13:18:56;;;;;;;4.28;2.90;;;20.60;61.80;;;;;;5023721;28;44160;-58
2022/09/28 13:21:35;;;;;;;4.30;2.38;;;20.70;62.00;;;;;;5022942;28;43956;-58
2022/09/28 13:24:07;;;;;;;4.90;2.55;;;20.70;61.70;;;;;;5024020;28;43402;-58
2022/09/28 13:26:58;;;;;;;4.85;2.47;;;20.70;61.80;;;;;;5021929;28;43442;-59
2022/09/28 13:29:26;;;;;;;4.00;2.50;;;20.70;61.80;;;;;;5018510;28;44931;-59
2022/09/28 13:31:56;;;;;;;3.97;2.65;;;20.70;61.80;;;;;;5021806;28;43468;-58
2022/09/28 13:34:31;;;;;;;3.58;2.65;;;20.80;62.20;;;;;;5021772;28;43456;-59
2022/09/28 13:37:10;;;;;;;2.67;2.42;;;20.80;62.20;;;;;;5023195;28;43495;-58
2022/09/28 13:39:51;;;;;;;2.78;2.47;;;20.90;62.10;;;;;;5021806;28;44707;-59
2022/09/28 13:42:49;;;;;;;3.83;2.40;;;20.90;62.10;;;;;;5021938;28;43423;-59
2022/09/28 13:45:29;;;;;;;4.00;2.70;;;20.90;62.00;;;;;;5019152;28;43552;-59
2022/09/28 13:48:10;;;;;;;4.22;2.45;;;20.90;61.90;;;;;;5022394;28;43392;-58
2022/09/28 13:50:43;;;;;;;;;;;20.90;62.00;;;;;;5022094;28;44872;-59
2022/09/28 13:53:18;;;;;;;3.30;2.42;;;20.90;61.90;;;;;;5021218;28;43415;-58